Sana'a, Yemen

12:10 AM AST on October 02, 2014 (GMT +0300)
Sanaa International | Change Station
CLOSE
Current Station
Airport
Location: Sana,
Elevation: 7215 ft
Nearby Weather Stations

Elev 7215 ft 15.48 °N, 44.22 °E | Updated 10 minutes ago

Partly Cloudy
Partly Cloudy
64 °F
Feels Like 64 °F
N
4
Wind Variable Wind from NE

Today
High -- | Low -- °F
--% Chance of Precip.
Yesterday
High -- | Low -- °F
Precip. -- in
5:53 AM 5:51 PM
Waxing Crescent, 51% visible
Pressure 30.30 in
Visibility 6.2 miles
Clouds Few 3000 ft
Dew Point 37 °F
Humidity 37%
Rainfall 0.00 in
Snow Depth Not available.
UV 0 out of 12
Pollen Not available.
Air Quality Not available.
Flu Activity Not available.
METAR OYSN 012100Z 05003KT 020V110 9999 FEW030 18/03 Q1026 NOSIG

More Conditions Fewer Conditions

Pressure 30.30 in
Visibility 6.2 miles
Clouds Few 3000 ft
Dew Point 37 °F
Humidity 37%
Rainfall 0.00 in
Snow Depth Not available.
UV 0 out of 12
Pollen Not available.
Air Quality Not available.
Flu Activity Not available.
METAR OYSN 012100Z 05003KT 020V110 9999 FEW030 18/03 Q1026 NOSIG

More Conditions Fewer Conditions

10-Day Weather Forecast

Almanac

Astronomy

Oct. 02, 2014 Rise Set
Actual Time 5:53 AM AST 5:51 PM AST
Civil Twilight 5:31 AM AST 6:13 PM AST
Nautical Twilight 5:06 AM AST 6:38 PM AST
Astronomical Twilight 4:41 AM AST 7:03 PM AST
Moon 12:50 PM AST (10/2) No Moon Set
Length of Visible Light 12h 41m
Length of Day
11h 58m
Tomorrow will be 0m 52s shorter.
Waxing Crescent, 51% of the Moon is Illuminated
Oct 1
Waxing Crescent
Oct 8
Full
Oct 15
Last Quarter
Oct 23
New
Oct 30
First Quarter

Yesterday's Extremes

Country Highs Country Lows

Community

WunderPhotos

Upload Photos

1,758,058 photos uploaded!

WunderBlogs® & News

By Dr. Jeff Masters
Director of Meteorology, Weather Underground
By Kari Strenfel
Meteorologist, Weather Underground
By Christopher C. Burt
Weather Historian, Weather Underground
October 1, 2014
October 1, 2014
October 1, 2014

Nearby

Snow Depth

Not available.

Earthquake Activity

City Distance Mag. Time & Date
No recent earthquake activity has been reported nearby.
Minimum magnitude displayed is 2.5.

Coastal Water Temperatures

Place Temperature
No Stations Reporting

Nearby Weather Stations